sensor_id;sensor_type;location;lat;lon;timestamp;pressure;altitude;pressure_sealevel;temperature;humidity
6837;BME280;3456;42.136;24.736;2023-06-26T00:00:42;152557.28;;;23.14;100.00
6837;BME280;3456;42.136;24.736;2023-06-26T00:03:15;152451.38;;;22.72;100.00
6837;BME280;3456;42.136;24.736;2023-06-26T00:05:44;152475.63;;;22.82;100.00
6837;BME280;3456;42.136;24.736;2023-06-26T00:08:22;152563.69;;;23.16;100.00
6837;BME280;3456;42.136;24.736;2023-06-26T00:10:51;152552.19;;;23.12;100.00
6837;BME280;3456;42.136;24.736;2023-06-26T00:13:19;152536.88;;;23.06;100.00
6837;BME280;3456;42.136;24.736;2023-06-26T00:15:48;152378.63;;;22.44;100.00
6837;BME280;3456;42.136;24.736;2023-06-26T00:18:20;152534.28;;;23.05;100.00
6837;BME280;3456;42.136;24.736;2023-06-26T00:20:49;152561.09;;;23.15;100.00
6837;BME280;3456;42.136;24.736;2023-06-26T00:23:17;152386.25;;;22.47;100.00
6837;BME280;3456;42.136;24.736;2023-06-26T00:25:48;152364.59;;;22.38;100.00
6837;BME280;3456;42.136;24.736;2023-06-26T00:28:18;152508.78;;;22.95;100.00
6837;BME280;3456;42.136;24.736;2023-06-26T00:30:46;152485.81;;;22.86;100.00
6837;BME280;3456;42.136;24.736;2023-06-26T00:33:15;152465.44;;;22.78;100.00
6837;BME280;3456;42.136;24.736;2023-06-26T00:35:47;152479.47;;;22.83;100.00
6837;BME280;3456;42.136;24.736;2023-06-26T00:38:16;152442.47;;;22.69;100.00
6837;BME280;3456;42.136;24.736;2023-06-26T00:40:45;152370.97;;;22.41;100.00
6837;BME280;3456;42.136;24.736;2023-06-26T00:43:14;152411.84;;;22.57;100.00
6837;BME280;3456;42.136;24.736;2023-06-26T00:45:43;152525.41;;;23.01;100.00
6837;BME280;3456;42.136;24.736;2023-06-26T00:48:12;152516.44;;;22.98;100.00
6837;BME280;3456;42.136;24.736;2023-06-26T00:50:41;152455.19;;;22.74;100.00
6837;BME280;3456;42.136;24.736;2023-06-26T00:53:13;152309.78;;;22.17;100.00
6837;BME280;3456;42.136;24.736;2023-06-26T00:55:42;152327.63;;;22.24;100.00
6837;BME280;3456;42.136;24.736;2023-06-26T00:58:11;152411.84;;;22.57;100.00
6837;BME280;3456;42.136;24.736;2023-06-26T01:00:40;152405.44;;;22.54;100.00
6837;BME280;3456;42.136;24.736;2023-06-26T01:03:11;152388.84;;;22.48;100.00
6837;BME280;3456;42.136;24.736;2023-06-26T01:05:48;152297.00;;;22.12;100.00
6837;BME280;3456;42.136;24.736;2023-06-26T01:08:22;152231.97;;;21.86;100.00
6837;BME280;3456;42.136;24.736;2023-06-26T01:10:51;152344.22;;;22.30;100.00
6837;BME280;3456;42.136;24.736;2023-06-26T01:13:20;152342.94;;;22.30;100.00
6837;BME280;3456;42.136;24.736;2023-06-26T01:15:49;152311.03;;;22.17;100.00
6837;BME280;3456;42.136;24.736;2023-06-26T01:18:19;152225.63;;;21.84;100.00
6837;BME280;3456;42.136;24.736;2023-06-26T01:20:48;152351.88;;;22.33;100.00
6837;BME280;3456;42.136;24.736;2023-06-26T01:23:24;152261.28;;;21.98;100.00
6837;BME280;3456;42.136;24.736;2023-06-26T01:26:14;152405.44;;;22.54;100.00
6837;BME280;3456;42.136;24.736;2023-06-26T01:28:47;152393.97;;;22.50;100.00
6837;BME280;3456;42.136;24.736;2023-06-26T01:31:17;152276.59;;;22.04;100.00
6837;BME280;3456;42.136;24.736;2023-06-26T01:33:47;152128.72;;;21.46;100.00
6837;BME280;3456;42.136;24.736;2023-06-26T01:36:18;152288.06;;;22.08;100.00
6837;BME280;3456;42.136;24.736;2023-06-26T01:38:47;152316.16;;;22.19;100.00
6837;BME280;3456;42.136;24.736;2023-06-26T01:41:19;152374.78;;;22.42;100.00
6837;BME280;3456;42.136;24.736;2023-06-26T01:44:05;152395.25;;;22.50;100.00
6837;BME280;3456;42.136;24.736;2023-06-26T01:46:39;152220.50;;;21.82;100.00
6837;BME280;3456;42.136;24.736;2023-06-26T01:49:14;152297.00;;;22.12;100.00
6837;BME280;3456;42.136;24.736;2023-06-26T01:51:49;152302.13;;;22.14;100.00
6837;BME280;3456;42.136;24.736;2023-06-26T01:54:23;152298.31;;;22.12;100.00
6837;BME280;3456;42.136;24.736;2023-06-26T01:56:55;152276.59;;;22.04;100.00
6837;BME280;3456;42.136;24.736;2023-06-26T01:59:28;152261.28;;;21.98;100.00
6837;BME280;3456;42.136;24.736;2023-06-26T02:02:00;152146.53;;;21.53;100.00
6837;BME280;3456;42.136;24.736;2023-06-26T02:04:33;152251.09;;;21.94;100.00
6837;BME280;3456;42.136;24.736;2023-06-26T02:07:05;152281.72;;;22.06;100.00
6837;BME280;3456;42.136;24.736;2023-06-26T02:09:35;152238.38;;;21.89;100.00
6837;BME280;3456;42.136;24.736;2023-06-26T02:12:07;152253.63;;;21.95;100.00
6837;BME280;3456;42.136;24.736;2023-06-26T02:14:39;152228.16;;;21.85;100.00
6837;BME280;3456;42.136;24.736;2023-06-26T02:17:10;152234.56;;;21.87;100.00
6837;BME280;3456;42.136;24.736;2023-06-26T02:19:39;152304.66;;;22.15;100.00
6837;BME280;3456;42.136;24.736;2023-06-26T02:22:14;152211.59;;;21.78;100.00
6837;BME280;3456;42.136;24.736;2023-06-26T02:24:43;152166.91;;;21.61;100.00
6837;BME280;3456;42.136;24.736;2023-06-26T02:27:15;152143.97;;;21.52;100.00
6837;BME280;3456;42.136;24.736;2023-06-26T02:29:44;152286.84;;;22.08;100.00
6837;BME280;3456;42.136;24.736;2023-06-26T02:32:13;152261.28;;;21.98;100.00
6837;BME280;3456;42.136;24.736;2023-06-26T02:34:42;152289.34;;;22.09;100.00
6837;BME280;3456;42.136;24.736;2023-06-26T02:37:10;152358.22;;;22.36;100.00
6837;BME280;3456;42.136;24.736;2023-06-26T02:39:39;152154.19;;;21.56;100.00
6837;BME280;3456;42.136;24.736;2023-06-26T02:42:08;152149.06;;;21.54;100.00
6837;BME280;3456;42.136;24.736;2023-06-26T02:44:39;152093.00;;;21.31;100.00
6837;BME280;3456;42.136;24.736;2023-06-26T02:47:08;152363.34;;;22.38;100.00
6837;BME280;3456;42.136;24.736;2023-06-26T02:49:37;152108.31;;;21.38;100.00
6837;BME280;3456;42.136;24.736;2023-06-26T02:52:06;152279.19;;;22.05;100.00
6837;BME280;3456;42.136;24.736;2023-06-26T02:54:35;152252.41;;;21.94;100.00
6837;BME280;3456;42.136;24.736;2023-06-26T02:57:05;152266.41;;;22.00;100.00
6837;BME280;3456;42.136;24.736;2023-06-26T02:59:34;152256.22;;;21.96;100.00
6837;BME280;3456;42.136;24.736;2023-06-26T03:02:07;152268.94;;;22.01;100.00
6837;BME280;3456;42.136;24.736;2023-06-26T03:04:36;152177.13;;;21.65;100.00
6837;BME280;3456;42.136;24.736;2023-06-26T03:07:05;152311.03;;;22.17;100.00
6837;BME280;3456;42.136;24.736;2023-06-26T03:09:36;152327.63;;;22.24;100.00
6837;BME280;3456;42.136;24.736;2023-06-26T03:12:06;152293.19;;;22.10;100.00
6837;BME280;3456;42.136;24.736;2023-06-26T03:14:35;152207.78;;;21.77;100.00
6837;BME280;3456;42.136;24.736;2023-06-26T03:17:07;152174.56;;;21.64;100.00
6837;BME280;3456;42.136;24.736;2023-06-26T03:19:36;152325.09;;;22.23;100.00
6837;BME280;3456;42.136;24.736;2023-06-26T03:22:07;152151.59;;;21.55;100.00
6837;BME280;3456;42.136;24.736;2023-06-26T03:24:35;152295.72;;;22.11;100.00
6837;BME280;3456;42.136;24.736;2023-06-26T03:27:05;152322.50;;;22.22;100.00
6837;BME280;3456;42.136;24.736;2023-06-26T03:29:35;152381.19;;;22.45;100.00
6837;BME280;3456;42.136;24.736;2023-06-26T03:34:38;152351.88;;;22.33;100.00
6837;BME280;3456;42.136;24.736;2023-06-26T03:39:37;152272.75;;;22.02;100.00
6837;BME280;3456;42.136;24.736;2023-06-26T03:42:08;152286.84;;;22.08;100.00
6837;BME280;3456;42.136;24.736;2023-06-26T03:52:29;152367.19;;;22.39;100.00
6837;BME280;3456;42.136;24.736;2023-06-26T03:57:28;152598.19;;;23.30;100.00
6837;BME280;3456;42.136;24.736;2023-06-26T03:59:57;152687.50;;;23.65;100.00
6837;BME280;3456;42.136;24.736;2023-06-26T04:02:25;152702.84;;;23.71;100.00
6837;BME280;3456;42.136;24.736;2023-06-26T04:07:23;152566.22;;;23.17;100.00
6837;BME280;3456;42.136;24.736;2023-06-26T04:09:56;152576.41;;;23.21;100.00
6837;BME280;3456;42.136;24.736;2023-06-26T04:12:25;152525.41;;;23.01;100.00
6837;BME280;3456;42.136;24.736;2023-06-26T04:14:55;152718.16;;;23.77;100.00
6837;BME280;3456;42.136;24.736;2023-06-26T04:17:24;152630.06;;;23.43;100.00
6837;BME280;3456;42.136;24.736;2023-06-26T04:19:55;152896.97;;;24.47;100.00
6837;BME280;3456;42.136;24.736;2023-06-26T04:24:56;153120.66;;;25.35;100.00
6837;BME280;3456;42.136;24.736;2023-06-26T04:27:25;153201.19;;;25.67;100.00
6837;BME280;3456;42.136;24.736;2023-06-26T04:29:58;153065.63;;;25.14;100.00
6837;BME280;3456;42.136;24.736;2023-06-26T04:32:27;153068.22;;;25.15;100.00
6837;BME280;3456;42.136;24.736;2023-06-26T04:34:56;152967.25;;;24.75;100.00
6837;BME280;3456;42.136;24.736;2023-06-26T04:42:26;153086.09;;;25.22;100.00
6837;BME280;3456;42.136;24.736;2023-06-26T04:44:55;152896.97;;;24.47;100.00
6837;BME280;3456;42.136;24.736;2023-06-26T04:47:24;152909.72;;;24.52;100.00
6837;BME280;3456;42.136;24.736;2023-06-26T04:49:53;153139.81;;;25.43;100.00
6837;BME280;3456;42.136;24.736;2023-06-26T04:52:21;153175.59;;;25.57;100.00
6837;BME280;3456;42.136;24.736;2023-06-26T04:54:50;153387.88;;;26.40;100.00
6837;BME280;3456;42.136;24.736;2023-06-26T05:02:32;153362.31;;;26.30;98.59
6837;BME280;3456;42.136;24.736;2023-06-26T05:05:01;153564.47;;;27.09;97.19
6837;BME280;3456;42.136;24.736;2023-06-26T05:07:30;153473.63;;;26.73;96.45
6837;BME280;3456;42.136;24.736;2023-06-26T05:09:59;153546.56;;;27.02;96.69
6837;BME280;3456;42.136;24.736;2023-06-26T05:12:28;153556.78;;;27.06;96.71
6837;BME280;3456;42.136;24.736;2023-06-26T05:14:57;153583.66;;;27.17;96.01
6837;BME280;3456;42.136;24.736;2023-06-26T05:17:25;153641.31;;;27.39;93.90
6837;BME280;3456;42.136;24.736;2023-06-26T05:19:57;153743.69;;;27.79;92.61
6837;BME280;3456;42.136;24.736;2023-06-26T05:22:26;153591.34;;;27.20;94.16
6837;BME280;3456;42.136;24.736;2023-06-26T05:24:58;153605.44;;;27.25;94.16
6837;BME280;3456;42.136;24.736;2023-06-26T05:27:29;153572.13;;;27.12;94.47
6837;BME280;3456;42.136;24.736;2023-06-26T05:32:34;153554.25;;;27.05;94.97
6837;BME280;3456;42.136;24.736;2023-06-26T05:35:20;153569.56;;;27.11;91.88
6837;BME280;3456;42.136;24.736;2023-06-26T05:38:04;153610.59;;;27.27;91.32
6837;BME280;3456;42.136;24.736;2023-06-26T05:44:09;153491.53;;;26.80;93.10
6837;BME280;3456;42.136;24.736;2023-06-26T05:46:51;153709.13;;;27.66;91.53
6837;BME280;3456;42.136;24.736;2023-06-26T05:49:31;153887.13;;;28.35;87.79
6837;BME280;3456;42.136;24.736;2023-06-26T05:52:06;153760.34;;;27.86;86.78
6837;BME280;3456;42.136;24.736;2023-06-26T05:54:36;153948.66;;;28.59;86.34
6837;BME280;3456;42.136;24.736;2023-06-26T05:57:08;153952.50;;;28.61;85.24
6837;BME280;3456;42.136;24.736;2023-06-26T05:59:43;153779.56;;;27.93;86.98
6837;BME280;3456;42.136;24.736;2023-06-26T06:02:15;153608.00;;;27.26;90.63
6837;BME280;3456;42.136;24.736;2023-06-26T06:04:48;153464.66;;;26.70;90.78
6837;BME280;3456;42.136;24.736;2023-06-26T06:07:19;153372.53;;;26.34;94.34
6837;BME280;3456;42.136;24.736;2023-06-26T06:09:48;153474.88;;;26.74;94.79
6837;BME280;3456;42.136;24.736;2023-06-26T06:12:19;153543.97;;;27.01;92.84
6837;BME280;3456;42.136;24.736;2023-06-26T06:14:48;153636.16;;;27.37;91.80
6837;BME280;3456;42.136;24.736;2023-06-26T06:22:13;153518.41;;;26.91;94.10
6837;BME280;3456;42.136;24.736;2023-06-26T06:24:48;153400.69;;;26.45;93.93
6837;BME280;3456;42.136;24.736;2023-06-26T06:27:17;153444.19;;;26.62;94.52
6837;BME280;3456;42.136;24.736;2023-06-26T06:29:48;153457.00;;;26.67;94.34
6837;BME280;3456;42.136;24.736;2023-06-26T06:32:17;153459.53;;;26.68;94.69
6837;BME280;3456;42.136;24.736;2023-06-26T06:34:48;153399.38;;;26.44;94.81
6837;BME280;3456;42.136;24.736;2023-06-26T06:37:22;153304.75;;;26.07;94.99
6837;BME280;3456;42.136;24.736;2023-06-26T06:40:05;153313.72;;;26.11;97.53
6837;BME280;3456;42.136;24.736;2023-06-26T06:42:34;153226.75;;;25.77;98.42
6837;BME280;3456;42.136;24.736;2023-06-26T06:45:04;153306.06;;;26.08;96.96
6837;BME280;3456;42.136;24.736;2023-06-26T06:47:33;153261.25;;;25.90;98.10
6837;BME280;3456;42.136;24.736;2023-06-26T06:50:02;153236.94;;;25.81;98.74
6837;BME280;3456;42.136;24.736;2023-06-26T06:52:35;153065.63;;;25.14;98.27
6837;BME280;3456;42.136;24.736;2023-06-26T06:57:42;153257.44;;;25.89;95.71
6837;BME280;3456;42.136;24.736;2023-06-26T07:00:13;153416.03;;;26.51;94.56
6837;BME280;3456;42.136;24.736;2023-06-26T07:02:44;153377.66;;;26.36;92.86
6837;BME280;3456;42.136;24.736;2023-06-26T07:05:14;153445.47;;;26.62;92.37
6837;BME280;3456;42.136;24.736;2023-06-26T07:07:43;153298.38;;;26.05;90.83
6837;BME280;3456;42.136;24.736;2023-06-26T07:10:13;153300.91;;;26.06;90.65
6837;BME280;3456;42.136;24.736;2023-06-26T07:12:46;153393.00;;;26.42;91.18
6837;BME280;3456;42.136;24.736;2023-06-26T07:15:16;153446.78;;;26.63;90.32
6837;BME280;3456;42.136;24.736;2023-06-26T07:17:54;153367.44;;;26.32;88.69
6837;BME280;3456;42.136;24.736;2023-06-26T07:20:25;153451.84;;;26.65;89.06
6837;BME280;3456;42.136;24.736;2023-06-26T07:23:09;153331.59;;;26.18;90.00
6837;BME280;3456;42.136;24.736;2023-06-26T07:25:40;153350.78;;;26.25;89.38
6837;BME280;3456;42.136;24.736;2023-06-26T07:28:18;153244.63;;;25.84;90.22
6837;BME280;3456;42.136;24.736;2023-06-26T07:30:47;153399.38;;;26.44;90.01
6837;BME280;3456;42.136;24.736;2023-06-26T07:33:33;153549.09;;;27.03;89.64
6837;BME280;3456;42.136;24.736;2023-06-26T07:36:02;153707.81;;;27.65;87.34
6837;BME280;3456;42.136;24.736;2023-06-26T07:38:33;153858.94;;;28.24;79.79
6837;BME280;3456;42.136;24.736;2023-06-26T07:41:02;153865.34;;;28.27;80.28
6837;BME280;3456;42.136;24.736;2023-06-26T07:43:33;153887.13;;;28.35;76.61
6837;BME280;3456;42.136;24.736;2023-06-26T07:46:05;153958.88;;;28.63;76.69
6837;BME280;3456;42.136;24.736;2023-06-26T07:48:39;153899.94;;;28.40;76.51
6837;BME280;3456;42.136;24.736;2023-06-26T07:51:09;154016.53;;;28.86;74.49
6837;BME280;3456;42.136;24.736;2023-06-26T07:53:38;154307.47;;;30.00;71.33
6837;BME280;3456;42.136;24.736;2023-06-26T07:56:11;154428.06;;;30.47;68.33
6837;BME280;3456;42.136;24.736;2023-06-26T07:58:43;154330.53;;;30.09;66.43
6837;BME280;3456;42.136;24.736;2023-06-26T08:01:19;154125.44;;;29.29;65.04
6837;BME280;3456;42.136;24.736;2023-06-26T08:03:52;154356.28;;;30.19;66.01
6837;BME280;3456;42.136;24.736;2023-06-26T08:06:22;154261.38;;;29.82;68.46
6837;BME280;3456;42.136;24.736;2023-06-26T08:08:53;154053.66;;;29.01;68.56
6837;BME280;3456;42.136;24.736;2023-06-26T08:16:21;153876.88;;;28.31;76.37
6837;BME280;3456;42.136;24.736;2023-06-26T08:18:58;153797.47;;;28.00;78.10
6837;BME280;3456;42.136;24.736;2023-06-26T08:21:29;153770.63;;;27.90;80.75
6837;BME280;3456;42.136;24.736;2023-06-26T08:23:59;153623.34;;;27.32;81.82
6837;BME280;3456;42.136;24.736;2023-06-26T08:26:31;153556.78;;;27.06;89.81
6837;BME280;3456;42.136;24.736;2023-06-26T08:29:12;153367.44;;;26.32;93.67
6837;BME280;3456;42.136;24.736;2023-06-26T08:31:54;153111.69;;;25.32;97.13
6837;BME280;3456;42.136;24.736;2023-06-26T08:34:25;153134.69;;;25.41;98.73
6837;BME280;3456;42.136;24.736;2023-06-26T08:39:27;153068.22;;;25.15;100.00
6837;BME280;3456;42.136;24.736;2023-06-26T08:42:04;152916.13;;;24.55;100.00
6837;BME280;3456;42.136;24.736;2023-06-26T08:44:42;152779.50;;;24.01;100.00
6837;BME280;3456;42.136;24.736;2023-06-26T08:47:16;152977.47;;;24.79;100.00
6837;BME280;3456;42.136;24.736;2023-06-26T08:49:51;153001.75;;;24.88;100.00
6837;BME280;3456;42.136;24.736;2023-06-26T08:52:27;153079.72;;;25.19;100.00
6837;BME280;3456;42.136;24.736;2023-06-26T08:55:02;153091.19;;;25.24;100.00
6837;BME280;3456;42.136;24.736;2023-06-26T08:57:37;153175.59;;;25.57;100.00
6837;BME280;3456;42.136;24.736;2023-06-26T09:00:07;153239.50;;;25.82;100.00
6837;BME280;3456;42.136;24.736;2023-06-26T09:02:40;153362.31;;;26.30;100.00
6837;BME280;3456;42.136;24.736;2023-06-26T09:05:13;153384.03;;;26.38;100.00
6837;BME280;3456;42.136;24.736;2023-06-26T09:07:45;153494.06;;;26.81;100.00
6837;BME280;3456;42.136;24.736;2023-06-26T09:10:15;153774.47;;;27.91;95.92
6837;BME280;3456;42.136;24.736;2023-06-26T09:12:55;154084.47;;;29.13;89.70
6837;BME280;3456;42.136;24.736;2023-06-26T09:15:24;153999.84;;;28.80;81.85
6837;BME280;3456;42.136;24.736;2023-06-26T09:17:57;153930.69;;;28.52;84.77
6837;BME280;3456;42.136;24.736;2023-06-26T09:20:28;154079.31;;;29.11;82.73
6837;BME280;3456;42.136;24.736;2023-06-26T09:22:59;153820.50;;;28.09;83.88
6837;BME280;3456;42.136;24.736;2023-06-26T09:25:30;153858.94;;;28.24;84.42
6837;BME280;3456;42.136;24.736;2023-06-26T09:27:59;153897.34;;;28.39;85.29
6837;BME280;3456;42.136;24.736;2023-06-26T09:30:27;153867.91;;;28.28;84.21
6837;BME280;3456;42.136;24.736;2023-06-26T09:33:13;153807.75;;;28.04;85.43
6837;BME280;3456;42.136;24.736;2023-06-26T09:35:43;153549.09;;;27.03;92.44
6837;BME280;3456;42.136;24.736;2023-06-26T09:38:12;153173.03;;;25.56;100.00
6837;BME280;3456;42.136;24.736;2023-06-26T09:40:41;153216.47;;;25.73;100.00
6837;BME280;3456;42.136;24.736;2023-06-26T09:43:13;153114.22;;;25.33;100.00
6837;BME280;3456;42.136;24.736;2023-06-26T09:45:43;153106.50;;;25.30;100.00
6837;BME280;3456;42.136;24.736;2023-06-26T09:48:17;153219.06;;;25.74;100.00
6837;BME280;3456;42.136;24.736;2023-06-26T09:50:46;153034.97;;;25.01;100.00
6837;BME280;3456;42.136;24.736;2023-06-26T09:53:16;153027.28;;;24.98;100.00
6837;BME280;3456;42.136;24.736;2023-06-26T09:55:44;152853.53;;;24.30;100.00
6837;BME280;3456;42.136;24.736;2023-06-26T09:58:13;152853.53;;;24.30;100.00
6837;BME280;3456;42.136;24.736;2023-06-26T10:00:43;152840.78;;;24.25;100.00
6837;BME280;3456;42.136;24.736;2023-06-26T10:03:15;152789.69;;;24.05;100.00
6837;BME280;3456;42.136;24.736;2023-06-26T10:05:44;152780.75;;;24.02;100.00
6837;BME280;3456;42.136;24.736;2023-06-26T10:08:14;152766.72;;;23.96;100.00
6837;BME280;3456;42.136;24.736;2023-06-26T10:10:45;152812.69;;;24.14;100.00
6837;BME280;3456;42.136;24.736;2023-06-26T10:13:21;152793.53;;;24.07;100.00
6837;BME280;3456;42.136;24.736;2023-06-26T10:15:51;152820.34;;;24.17;100.00
6837;BME280;3456;42.136;24.736;2023-06-26T10:18:24;152904.66;;;24.50;100.00
6837;BME280;3456;42.136;24.736;2023-06-26T10:20:56;153024.75;;;24.97;100.00
6837;BME280;3456;42.136;24.736;2023-06-26T10:23:27;153115.53;;;25.33;100.00
6837;BME280;3456;42.136;24.736;2023-06-26T10:25:58;153157.72;;;25.50;100.00
6837;BME280;3456;42.136;24.736;2023-06-26T10:28:28;153267.63;;;25.93;100.00
6837;BME280;3456;42.136;24.736;2023-06-26T10:31:01;153474.88;;;26.74;100.00
6837;BME280;3456;42.136;24.736;2023-06-26T10:33:35;153577.22;;;27.14;100.00
6837;BME280;3456;42.136;24.736;2023-06-26T10:36:16;153592.59;;;27.20;95.57
6837;BME280;3456;42.136;24.736;2023-06-26T10:38:48;153730.88;;;27.74;92.98
6837;BME280;3456;42.136;24.736;2023-06-26T10:41:20;153695.00;;;27.60;95.52
6837;BME280;3456;42.136;24.736;2023-06-26T10:43:50;153761.66;;;27.86;98.27
6837;BME280;3456;42.136;24.736;2023-06-26T10:49:01;153841.00;;;28.17;87.60
6837;BME280;3456;42.136;24.736;2023-06-26T10:51:30;153876.88;;;28.31;84.28
6837;BME280;3456;42.136;24.736;2023-06-26T10:54:01;153753.91;;;27.83;80.59
6837;BME280;3456;42.136;24.736;2023-06-26T10:56:46;153883.28;;;28.34;83.25
6837;BME280;3456;42.136;24.736;2023-06-26T10:59:17;153976.78;;;28.71;80.69
6837;BME280;3456;42.136;24.736;2023-06-26T11:01:54;153817.97;;;28.08;81.61
6837;BME280;3456;42.136;24.736;2023-06-26T11:04:44;153984.47;;;28.74;78.26
6837;BME280;3456;42.136;24.736;2023-06-26T11:07:19;153942.22;;;28.57;77.62
6837;BME280;3456;42.136;24.736;2023-06-26T11:09:59;154045.97;;;28.98;78.07
6837;BME280;3456;42.136;24.736;2023-06-26T11:13:00;154181.81;;;29.51;68.05
6837;BME280;3456;42.136;24.736;2023-06-26T11:15:51;154216.47;;;29.64;69.69
6837;BME280;3456;42.136;24.736;2023-06-26T11:18:29;154015.22;;;28.86;67.75
6837;BME280;3456;42.136;24.736;2023-06-26T11:21:15;153993.47;;;28.77;68.18
6837;BME280;3456;42.136;24.736;2023-06-26T11:23:45;153956.34;;;28.63;69.47
6837;BME280;3456;42.136;24.736;2023-06-26T11:26:18;153956.34;;;28.63;82.69
6837;BME280;3456;42.136;24.736;2023-06-26T11:28:51;153797.47;;;28.00;87.12
6837;BME280;3456;42.136;24.736;2023-06-26T11:31:28;153864.06;;;28.26;87.54
6837;BME280;3456;42.136;24.736;2023-06-26T11:33:59;153812.81;;;28.06;88.94
6837;BME280;3456;42.136;24.736;2023-06-26T11:36:34;153783.41;;;27.95;90.60
6837;BME280;3456;42.136;24.736;2023-06-26T11:39:06;153759.06;;;27.85;91.03
6837;BME280;3456;42.136;24.736;2023-06-26T11:41:36;153672.00;;;27.51;95.31
6837;BME280;3456;42.136;24.736;2023-06-26T11:44:07;153633.63;;;27.36;95.68
6837;BME280;3456;42.136;24.736;2023-06-26T11:46:38;153586.19;;;27.18;96.87
6837;BME280;3456;42.136;24.736;2023-06-26T11:49:08;153442.88;;;26.61;100.00
6837;BME280;3456;42.136;24.736;2023-06-26T11:51:40;153358.47;;;26.28;100.00
6837;BME280;3456;42.136;24.736;2023-06-26T11:54:09;153272.78;;;25.95;100.00
6837;BME280;3456;42.136;24.736;2023-06-26T11:56:40;153142.38;;;25.44;100.00
6837;BME280;3456;42.136;24.736;2023-06-26T11:59:12;153202.44;;;25.67;100.00
6837;BME280;3456;42.136;24.736;2023-06-26T12:01:42;153253.59;;;25.87;100.00
6837;BME280;3456;42.136;24.736;2023-06-26T12:04:23;153354.63;;;26.27;100.00
6837;BME280;3456;42.136;24.736;2023-06-26T12:07:12;153280.50;;;25.98;100.00
6837;BME280;3456;42.136;24.736;2023-06-26T12:14:50;153508.19;;;26.87;100.00
6837;BME280;3456;42.136;24.736;2023-06-26T12:17:23;153229.28;;;25.78;100.00
6837;BME280;3456;42.136;24.736;2023-06-26T12:20:02;153300.91;;;26.06;97.70
6837;BME280;3456;42.136;24.736;2023-06-26T12:22:45;153416.03;;;26.51;94.26
6837;BME280;3456;42.136;24.736;2023-06-26T12:40:56;153751.38;;;27.82;91.17
6837;BME280;3456;42.136;24.736;2023-06-26T12:43:46;153480.03;;;26.76;88.80
6837;BME280;3456;42.136;24.736;2023-06-26T12:46:40;153634.88;;;27.37;90.50
6837;BME280;3456;42.136;24.736;2023-06-26T12:49:14;153841.00;;;28.17;89.45
6837;BME280;3456;42.136;24.736;2023-06-26T12:52:07;153613.13;;;27.28;91.14
6837;BME280;3456;42.136;24.736;2023-06-26T12:54:44;153797.47;;;28.00;89.57
6837;BME280;3456;42.136;24.736;2023-06-26T12:57:17;153756.47;;;27.84;87.51
6837;BME280;3456;42.136;24.736;2023-06-26T12:59:50;153736.00;;;27.76;90.53
6837;BME280;3456;42.136;24.736;2023-06-26T13:02:26;153482.56;;;26.77;100.00
6837;BME280;3456;42.136;24.736;2023-06-26T13:05:16;153290.69;;;26.02;100.00
6837;BME280;3456;42.136;24.736;2023-06-26T13:07:45;153306.06;;;26.08;100.00
6837;BME280;3456;42.136;24.736;2023-06-26T13:10:22;153198.59;;;25.66;100.00
6837;BME280;3456;42.136;24.736;2023-06-26T13:12:57;152976.22;;;24.78;100.00
6837;BME280;3456;42.136;24.736;2023-06-26T13:15:42;153022.22;;;24.96;100.00
6837;BME280;3456;42.136;24.736;2023-06-26T13:18:11;153041.38;;;25.04;100.00
6837;BME280;3456;42.136;24.736;2023-06-26T13:20:40;152958.34;;;24.71;100.00
6837;BME280;3456;42.136;24.736;2023-06-26T13:23:09;153009.44;;;24.91;100.00
6837;BME280;3456;42.136;24.736;2023-06-26T13:25:40;152902.06;;;24.49;100.00
6837;BME280;3456;42.136;24.736;2023-06-26T13:28:14;153045.22;;;25.06;100.00
6837;BME280;3456;42.136;24.736;2023-06-26T13:30:45;152971.09;;;24.76;100.00
6837;BME280;3456;42.136;24.736;2023-06-26T13:33:17;153014.56;;;24.93;100.00
6837;BME280;3456;42.136;24.736;2023-06-26T13:35:49;153019.63;;;24.95;100.00
6837;BME280;3456;42.136;24.736;2023-06-26T13:38:19;153022.22;;;24.96;100.00
6837;BME280;3456;42.136;24.736;2023-06-26T13:40:52;152982.59;;;24.81;100.00
6837;BME280;3456;42.136;24.736;2023-06-26T13:43:32;153047.75;;;25.07;100.00
6837;BME280;3456;42.136;24.736;2023-06-26T13:46:07;152994.09;;;24.85;100.00
6837;BME280;3456;42.136;24.736;2023-06-26T13:48:36;152914.84;;;24.54;100.00
6837;BME280;3456;42.136;24.736;2023-06-26T13:51:05;152963.44;;;24.73;100.00
6837;BME280;3456;42.136;24.736;2023-06-26T13:53:50;152830.53;;;24.21;100.00
6837;BME280;3456;42.136;24.736;2023-06-26T13:56:20;152940.44;;;24.64;100.00
6837;BME280;3456;42.136;24.736;2023-06-26T13:58:53;152880.34;;;24.41;100.00
6837;BME280;3456;42.136;24.736;2023-06-26T14:01:24;152898.22;;;24.48;100.00
6837;BME280;3456;42.136;24.736;2023-06-26T14:03:54;152853.53;;;24.30;100.00
6837;BME280;3456;42.136;24.736;2023-06-26T14:06:22;152764.19;;;23.95;100.00
6837;BME280;3456;42.136;24.736;2023-06-26T14:08:52;152888.03;;;24.44;100.00
6837;BME280;3456;42.136;24.736;2023-06-26T14:11:23;152904.66;;;24.50;100.00
6837;BME280;3456;42.136;24.736;2023-06-26T14:13:54;152845.88;;;24.27;100.00
6837;BME280;3456;42.136;24.736;2023-06-26T14:16:24;152825.47;;;24.19;100.00
6837;BME280;3456;42.136;24.736;2023-06-26T14:18:54;152822.88;;;24.18;100.00
6837;BME280;3456;42.136;24.736;2023-06-26T14:21:23;152806.31;;;24.12;100.00
6837;BME280;3456;42.136;24.736;2023-06-26T14:23:53;152793.53;;;24.07;100.00
6837;BME280;3456;42.136;24.736;2023-06-26T14:26:22;152801.19;;;24.10;100.00
6837;BME280;3456;42.136;24.736;2023-06-26T14:28:50;152774.38;;;23.99;100.00
6837;BME280;3456;42.136;24.736;2023-06-26T14:31:22;152759.00;;;23.93;100.00
6837;BME280;3456;42.136;24.736;2023-06-26T14:33:51;152792.22;;;24.06;100.00
6837;BME280;3456;42.136;24.736;2023-06-26T14:36:19;152799.88;;;24.09;100.00